Time;durP1;ratioP1;P1;durP2;ratioP2;P2;SDS_P1;SDS_P2;PMS_P1;PMS_P2;Temp;Humidity;BMP_temperature;BMP_pressure;BME280_temperature;BME280_humidity;BME280_pressure;Samples;Min_cycle;Max_cycle;Signal;HPM_P1;HPM_P2
2023/03/15 00:00:44;;;;;;;5.28;3.30;;;2.70;99.90;;;;;;4960449;28;20058;-72
2023/03/15 00:03:11;;;;;;;5.85;4.05;;;2.70;99.90;;;;;;4944226;29;20119;-73
2023/03/15 00:05:40;;;;;;;5.72;3.50;;;2.60;99.90;;;;;;4958591;28;20109;-73
2023/03/15 00:08:06;;;;;;;5.95;3.83;;;2.70;99.90;;;;;;4963580;28;20046;-75
2023/03/15 00:10:31;;;;;;;5.15;3.40;;;2.60;99.90;;;;;;4963842;28;20027;-74
2023/03/15 00:12:57;;;;;;;6.80;3.72;;;2.60;99.90;;;;;;4963184;28;20039;-74
2023/03/15 00:15:23;;;;;;;6.28;3.60;;;2.60;99.90;;;;;;4963769;28;20031;-75
2023/03/15 00:17:48;;;;;;;5.53;3.70;;;2.70;99.90;;;;;;4963285;28;20301;-72
2023/03/15 00:20:14;;;;;;;6.88;3.97;;;2.60;99.90;;;;;;4963797;28;20039;-74
2023/03/15 00:22:41;;;;;;;7.53;4.03;;;2.60;99.90;;;;;;4963799;28;20063;-73
2023/03/15 00:25:07;;;;;;;5.72;3.55;;;2.80;99.90;;;;;;4975293;28;20041;-73
2023/03/15 00:27:33;;;;;;;8.40;4.25;;;2.80;99.90;;;;;;4947106;28;20046;-73
2023/03/15 00:29:59;;;;;;;7.63;4.55;;;2.80;99.90;;;;;;4954170;28;20313;-73
2023/03/15 06:02:38;;;;;;;9.02;2.05;;;1.50;99.90;;;;;;5439916;23;20042;-71
2023/03/15 06:05:36;;;;;;;;;;;1.70;99.90;;;;;;4978805;28;20038;-72
2023/03/15 06:08:05;;;;;;;9.57;2.22;;;1.70;99.90;;;;;;4984598;28;19914;-73
2023/03/15 06:10:33;;;;;;;9.35;2.17;;;1.80;99.90;;;;;;4983768;28;20023;-72
2023/03/15 06:13:04;;;;;;;5.95;1.98;;;1.80;99.90;;;;;;4983949;28;20101;-72
2023/03/15 06:15:31;;;;;;;7.47;1.90;;;1.80;99.90;;;;;;4985507;28;20366;-73
2023/03/15 06:17:59;;;;;;;8.13;2.53;;;1.80;99.90;;;;;;4967572;28;20034;-72
2023/03/15 06:20:24;;;;;;;3.95;2.00;;;1.90;99.90;;;;;;4983587;28;20260;-73
2023/03/15 06:23:00;;;;;;;6.95;2.00;;;1.90;99.90;;;;;;4985507;28;20053;-72
2023/03/15 06:25:35;;;;;;;7.55;2.15;;;1.90;99.90;;;;;;4987311;28;20038;-72
2023/03/15 06:28:01;;;;;;;6.65;1.80;;;2.00;99.90;;;;;;4986733;28;20038;-71
2023/03/15 06:30:27;;;;;;;7.75;2.20;;;2.10;99.90;;;;;;5002878;28;20429;-72
2023/03/15 06:32:56;;;;;;;7.55;2.30;;;2.20;99.90;;;;;;4986111;28;20132;-72
2023/03/15 06:35:22;;;;;;;6.95;2.10;;;2.20;99.90;;;;;;4982121;28;20292;-72
2023/03/15 06:37:48;;;;;;;7.18;1.98;;;2.20;99.90;;;;;;4967410;28;20181;-71
2023/03/15 06:40:15;;;;;;;13.23;2.75;;;2.20;99.90;;;;;;4966918;28;20022;-72
2023/03/15 06:42:41;;;;;;;6.85;2.00;;;2.30;99.90;;;;;;4967441;28;20054;-74
2023/03/15 06:45:10;;;;;;;8.15;2.63;;;2.40;99.90;;;;;;4967069;28;20247;-72
2023/03/15 06:47:36;;;;;;;5.88;2.15;;;2.40;99.90;;;;;;4967303;28;20031;-72
2023/03/15 06:50:03;;;;;;;7.82;1.90;;;2.50;99.90;;;;;;4966991;28;20035;-71
2023/03/15 06:52:29;;;;;;;6.75;1.70;;;2.50;99.90;;;;;;4966172;28;20056;-73
2023/03/15 06:54:55;;;;;;;8.73;1.88;;;2.70;99.90;;;;;;4967116;28;20023;-72
2023/03/15 06:57:21;;;;;;;7.60;2.63;;;2.70;99.90;;;;;;4983248;28;20030;-72
2023/03/15 06:59:46;;;;;;;10.40;1.73;;;2.80;99.90;;;;;;5009230;28;20033;-71
2023/03/15 07:02:14;;;;;;;4.82;1.83;;;2.80;99.90;;;;;;4989320;28;20070;-74
2023/03/15 07:04:40;;;;;;;8.38;2.03;;;2.90;99.90;;;;;;4970785;28;20039;-71
2023/03/15 07:07:06;;;;;;;8.18;2.13;;;3.00;99.90;;;;;;4964524;28;20070;-71
2023/03/15 07:09:31;;;;;;;7.70;1.83;;;3.10;99.90;;;;;;4979271;28;20316;-71
2023/03/15 07:11:57;;;;;;;8.88;2.05;;;3.10;99.90;;;;;;4961870;28;20039;-71
2023/03/15 07:14:23;;;;;;;9.18;2.13;;;3.20;99.90;;;;;;4946974;29;20309;-72
2023/03/15 07:16:49;;;;;;;8.05;2.13;;;3.30;99.90;;;;;;4964183;28;20086;-72
2023/03/15 07:19:15;;;;;;;7.53;1.73;;;3.30;99.90;;;;;;4963556;28;20086;-70
2023/03/15 07:21:40;;;;;;;7.63;1.83;;;3.40;99.90;;;;;;4964557;28;20050;-72
2023/03/15 07:24:06;;;;;;;8.70;1.83;;;3.40;99.90;;;;;;4964097;28;20332;-71
2023/03/15 07:26:32;;;;;;;8.45;1.60;;;3.50;99.90;;;;;;4946649;29;20039;-71
2023/03/15 07:28:58;;;;;;;6.20;2.03;;;3.60;99.90;;;;;;4964196;28;20035;-71
2023/03/15 07:31:24;;;;;;;9.70;2.30;;;3.60;99.90;;;;;;4963887;28;20182;-71
2023/03/15 07:33:49;;;;;;;7.57;1.50;;;3.70;99.90;;;;;;4963696;28;20039;-71
2023/03/15 07:36:15;;;;;;;8.15;1.98;;;3.80;99.90;;;;;;4963849;28;20309;-71
2023/03/15 07:38:40;;;;;;;7.90;1.80;;;3.90;99.90;;;;;;4963749;28;20030;-70
2023/03/15 07:41:07;;;;;;;5.90;1.63;;;3.90;99.90;;;;;;4963948;28;20055;-70
2023/03/15 07:43:35;;;;;;;5.97;1.23;;;3.90;99.90;;;;;;4946686;28;20031;-72
2023/03/15 07:46:10;;;;;;;7.18;1.80;;;3.90;99.90;;;;;;4946253;29;20031;-71
2023/03/15 07:48:36;;;;;;;9.85;1.60;;;4.00;99.90;;;;;;4963973;28;20061;-71
2023/03/15 07:51:01;;;;;;;9.02;1.70;;;4.00;99.90;;;;;;4966737;28;20042;-71
2023/03/15 07:53:27;;;;;;;8.02;1.50;;;4.00;99.90;;;;;;4962900;28;20043;-72
2023/03/15 07:55:53;;;;;;;5.88;1.42;;;4.20;99.90;;;;;;4963541;28;20090;-71
2023/03/15 07:58:18;;;;;;;7.35;1.10;;;4.10;99.90;;;;;;4979495;28;20030;-72
2023/03/15 08:00:44;;;;;;;6.03;1.50;;;4.20;99.90;;;;;;4981063;28;20049;-72
2023/03/15 08:03:10;;;;;;;7.60;1.50;;;4.20;99.90;;;;;;4965850;28;20054;-73
2023/03/15 08:05:36;;;;;;;4.60;1.35;;;4.30;99.90;;;;;;4962665;28;20083;-71
2023/03/15 08:08:02;;;;;;;11.20;1.55;;;4.40;99.90;;;;;;4963140;28;20062;-71
2023/03/15 08:10:28;;;;;;;10.52;1.60;;;4.40;99.90;;;;;;4962947;28;20038;-72
2023/03/15 08:12:53;;;;;;;5.80;1.50;;;4.50;99.90;;;;;;4963859;28;20217;-71
2023/03/15 08:15:19;;;;;;;8.10;1.60;;;4.50;99.90;;;;;;4963257;28;20123;-70
2023/03/15 08:17:47;;;;;;;7.95;1.45;;;4.40;99.90;;;;;;4963506;28;20030;-72
2023/03/15 08:20:16;;;;;;;6.22;1.20;;;4.30;99.90;;;;;;4962975;28;20035;-72
2023/03/15 08:22:45;;;;;;;10.27;1.38;;;4.30;99.90;;;;;;4963597;28;20039;-71
2023/03/15 08:25:13;;;;;;;4.40;1.33;;;4.30;99.90;;;;;;4963694;28;20035;-70
2023/03/15 08:27:39;;;;;;;6.13;1.83;;;4.30;99.90;;;;;;4963715;28;20106;-72
2023/03/15 08:30:05;;;;;;;4.97;1.17;;;4.50;99.90;;;;;;4963360;28;20066;-72
2023/03/15 08:32:31;;;;;;;3.35;0.98;;;4.50;99.40;;;;;;4962759;28;20057;-72
2023/03/15 08:34:57;;;;;;;8.75;1.77;;;4.60;99.90;;;;;;4963451;28;20043;-72
2023/03/15 08:37:23;;;;;;;6.97;1.55;;;4.60;99.80;;;;;;4963084;28;20057;-71
2023/03/15 08:39:48;;;;;;;8.23;1.65;;;4.80;99.30;;;;;;4963169;28;20035;-72
2023/03/15 08:42:14;;;;;;;5.03;1.38;;;4.90;99.00;;;;;;4962812;28;20043;-72
2023/03/15 08:44:40;;;;;;;7.28;1.35;;;5.20;98.90;;;;;;4963169;28;20035;-70
2023/03/15 08:47:06;;;;;;;5.55;1.40;;;5.30;98.40;;;;;;4978202;28;20051;-72
2023/03/15 08:49:32;;;;;;;6.53;1.58;;;5.50;98.40;;;;;;4962920;28;20031;-71
2023/03/15 08:51:58;;;;;;;6.40;1.63;;;5.70;97.80;;;;;;4963190;28;20057;-71
2023/03/15 08:54:26;;;;;;;8.63;1.25;;;5.70;97.20;;;;;;4962721;28;20058;-73
2023/03/15 08:56:51;;;;;;;6.45;1.40;;;5.90;97.10;;;;;;4977943;28;20046;-72
2023/03/15 08:59:17;;;;;;;6.80;1.50;;;6.00;96.50;;;;;;4975323;28;20039;-72
2023/03/15 09:01:45;;;;;;;5.10;1.42;;;6.20;96.20;;;;;;4966543;28;20054;-76
2023/03/15 09:04:15;;;;;;;4.95;1.40;;;6.20;95.70;;;;;;4966670;28;20326;-73
2023/03/15 09:06:41;;;;;;;5.15;1.13;;;6.30;95.40;;;;;;4966825;28;20055;-72
2023/03/15 09:09:07;;;;;;;7.35;1.10;;;6.40;94.90;;;;;;4966872;28;20050;-72
2023/03/15 09:11:32;;;;;;;6.10;1.27;;;6.40;94.20;;;;;;4966261;28;20325;-72
2023/03/15 09:13:58;;;;;;;5.15;1.13;;;6.60;93.60;;;;;;4966868;28;20106;-71
2023/03/15 09:16:24;;;;;;;4.20;1.10;;;6.50;93.90;;;;;;4966759;28;20027;-73
2023/03/15 09:18:49;;;;;;;4.28;0.95;;;6.50;93.80;;;;;;4974980;28;20027;-73
2023/03/15 09:21:15;;;;;;;6.18;1.25;;;6.60;93.90;;;;;;4966412;28;20031;-72
2023/03/15 09:23:41;;;;;;;4.50;1.33;;;6.90;94.00;;;;;;4966425;28;20031;-71
2023/03/15 09:26:07;;;;;;;3.67;1.10;;;7.10;92.20;;;;;;4967014;28;20031;-70
2023/03/15 09:28:33;;;;;;;5.82;1.10;;;7.10;91.70;;;;;;4969517;28;20100;-73
2023/03/15 09:30:58;;;;;;;6.35;1.25;;;7.10;91.60;;;;;;4970894;28;20043;-73
2023/03/15 09:33:24;;;;;;;5.30;1.50;;;7.10;91.70;;;;;;4967626;28;20372;-75
2023/03/15 09:35:51;;;;;;;6.90;1.20;;;7.20;91.40;;;;;;4966776;28;20086;-73
2023/03/15 09:38:18;;;;;;;7.25;1.30;;;7.30;91.30;;;;;;4965898;28;20038;-72
2023/03/15 09:40:45;;;;;;;4.82;0.88;;;7.30;91.50;;;;;;4966662;28;20160;-72
2023/03/15 09:43:26;;;;;;;4.10;1.10;;;7.40;91.00;;;;;;4974582;28;20141;-72
2023/03/15 09:46:13;;;;;;;7.88;1.30;;;7.40;91.00;;;;;;4969826;28;20093;-72
2023/03/15 09:49:12;;;;;;;4.40;1.10;;;7.40;91.30;;;;;;4978575;28;20023;-72
2023/03/15 09:51:53;;;;;;;4.80;1.15;;;7.60;90.70;;;;;;4965853;28;20035;-71
2023/03/15 09:54:48;;;;;;;4.95;0.98;;;7.40;90.20;;;;;;4965928;28;20224;-73
2023/03/15 09:57:20;;;;;;;4.20;1.13;;;7.30;90.50;;;;;;4974205;28;20249;-71
2023/03/15 09:59:50;;;;;;;5.15;0.90;;;7.30;90.00;;;;;;4971367;28;20034;-72
2023/03/15 10:02:27;;;;;;;4.82;1.10;;;7.20;88.30;;;;;;4965999;28;20054;-72
2023/03/15 10:05:21;;;;;;;4.75;0.98;;;7.30;89.70;;;;;;4966098;28;20356;-72
2023/03/15 10:07:47;;;;;;;5.22;1.30;;;7.40;90.50;;;;;;4964848;28;20027;-72
2023/03/15 10:10:30;;;;;;;5.68;1.27;;;7.50;90.60;;;;;;4965962;28;20040;-71
2023/03/15 10:13:11;;;;;;;5.22;1.20;;;7.60;90.30;;;;;;4965863;28;20288;-73
2023/03/15 10:15:43;;;;;;;3.67;0.90;;;7.70;90.00;;;;;;4972294;28;20042;-71
2023/03/15 10:18:37;;;;;;;3.50;0.98;;;7.80;90.20;;;;;;4984848;28;20283;-71
2023/03/15 10:21:26;;;;;;;3.78;0.90;;;7.80;88.50;;;;;;4983907;28;20038;-71
2023/03/15 10:23:54;;;;;;;4.88;1.25;;;8.30;87.20;;;;;;4974163;28;20120;-71
2023/03/15 10:26:34;;;;;;;4.55;0.82;;;8.30;86.00;;;;;;4984554;28;20043;-72
2023/03/15 10:29:07;;;;;;;6.40;0.80;;;8.50;85.40;;;;;;4985215;28;20090;-72
2023/03/15 10:31:38;;;;;;;3.45;0.70;;;8.50;86.00;;;;;;4984137;28;20026;-72
2023/03/15 10:34:03;;;;;;;5.93;0.70;;;8.30;85.20;;;;;;4984349;28;20077;-72
2023/03/15 10:36:29;;;;;;;3.03;0.75;;;8.00;85.50;;;;;;4984139;28;20023;-72
2023/03/15 10:38:57;;;;;;;3.50;0.95;;;8.00;86.00;;;;;;4984236;28;20023;-73
2023/03/15 10:41:39;;;;;;;4.78;0.77;;;8.00;86.10;;;;;;4984248;28;20081;-73
2023/03/15 10:44:23;;;;;;;4.85;0.88;;;8.00;86.10;;;;;;4984338;28;20093;-72
2023/03/15 10:47:12;;;;;;;4.47;0.85;;;8.20;86.90;;;;;;4984388;28;20264;-71
2023/03/15 10:49:40;;;;;;;3.38;0.70;;;8.90;81.90;;;;;;4983818;28;20042;-72
2023/03/15 10:52:23;;;;;;;3.63;0.82;;;9.40;81.40;;;;;;4984446;28;20334;-72
2023/03/15 10:54:51;;;;;;;2.85;0.77;;;9.50;81.00;;;;;;4984298;28;20205;-71
2023/03/15 10:57:20;;;;;;;2.78;0.80;;;9.70;81.30;;;;;;4983969;28;20038;-72
2023/03/15 11:00:16;;;;;;;2.47;0.82;;;9.90;80.40;;;;;;4957230;28;20225;-71
2023/03/15 11:03:00;;;;;;;5.03;0.80;;;9.90;80.70;;;;;;4974283;28;20097;-72
2023/03/15 11:05:40;;;;;;;2.22;0.50;;;9.60;81.40;;;;;;4983606;28;20372;-72
2023/03/15 11:08:17;;;;;;;3.20;0.70;;;9.00;81.30;;;;;;4974409;28;20077;-72
2023/03/15 11:10:45;;;;;;;;;;;8.50;82.80;;;;;;4978572;28;20052;-71
2023/03/15 11:13:25;;;;;;;2.85;0.90;;;8.30;84.50;;;;;;4983906;28;19921;-73
2023/03/15 11:16:17;;;;;;;3.33;0.73;;;8.20;85.00;;;;;;4983698;28;20049;-73
2023/03/15 11:18:56;;;;;;;4.43;0.77;;;8.00;85.70;;;;;;4983365;28;20067;-72
2023/03/15 11:21:32;;;;;;;4.68;0.70;;;7.80;87.10;;;;;;4983872;28;20042;-72
2023/03/15 11:23:59;;;;;;;4.68;0.98;;;7.90;87.70;;;;;;4983846;28;20039;-72
2023/03/15 11:26:26;;;;;;;2.07;0.53;;;7.90;88.10;;;;;;4966085;28;20293;-71
2023/03/15 11:28:59;;;;;;;4.75;0.80;;;7.90;88.30;;;;;;4984057;28;20042;-73
2023/03/15 11:31:30;;;;;;;4.60;0.90;;;7.90;88.80;;;;;;4983363;28;20034;-74
2023/03/15 11:34:32;;;;;;;4.72;0.90;;;8.00;89.60;;;;;;4950476;28;20320;-73
2023/03/15 11:37:04;;;;;;;2.63;0.60;;;8.20;90.30;;;;;;4966466;28;20106;-72
2023/03/15 11:40:00;;;;;;;2.75;0.60;;;8.40;88.30;;;;;;4983034;28;20034;-73
2023/03/15 11:42:32;;;;;;;3.42;0.63;;;8.60;88.00;;;;;;4983014;28;20035;-72
2023/03/15 11:45:05;;;;;;;3.95;0.80;;;8.70;87.80;;;;;;4983289;28;20300;-74
2023/03/15 11:47:46;;;;;;;3.55;0.60;;;8.90;87.10;;;;;;4982783;28;20046;-74
2023/03/15 11:50:15;;;;;;;4.35;0.98;;;8.90;85.40;;;;;;4966090;28;20047;-74
2023/03/15 11:52:41;;;;;;;3.25;0.55;;;9.00;84.70;;;;;;4965629;28;20034;-76
2023/03/15 11:55:16;;;;;;;2.63;0.43;;;9.10;81.10;;;;;;4966064;28;20023;-75
2023/03/15 11:57:47;;;;;;;3.05;0.57;;;9.00;80.40;;;;;;4982672;28;20033;-75
2023/03/15 12:00:33;;;;;;;2.72;0.52;;;9.00;79.00;;;;;;4965041;28;20039;-74
2023/03/15 12:03:21;;;;;;;3.65;0.77;;;8.80;78.40;;;;;;4963175;28;20065;-75
2023/03/15 12:05:51;;;;;;;3.83;0.75;;;8.90;78.00;;;;;;4948809;28;20073;-76
2023/03/15 12:08:38;;;;;;;2.47;0.50;;;8.80;78.10;;;;;;4973199;28;20038;-73
2023/03/15 12:11:27;;;;;;;2.08;0.38;;;8.80;78.00;;;;;;4976449;28;20328;-76
2023/03/15 12:13:56;;;;;;;2.15;0.40;;;8.70;77.80;;;;;;4971081;28;20057;-76
2023/03/15 12:16:24;;;;;;;2.15;0.50;;;8.70;77.80;;;;;;4983151;28;20093;-76
2023/03/15 12:18:51;;;;;;;3.80;0.45;;;8.90;77.70;;;;;;4982495;28;20065;-73
2023/03/15 12:21:30;;;;;;;3.33;0.50;;;9.00;78.20;;;;;;4965561;28;20232;-76
2023/03/15 12:24:05;;;;;;;2.03;0.40;;;9.00;78.10;;;;;;4949483;28;20105;-76
2023/03/15 12:26:42;;;;;;;3.05;0.60;;;9.10;78.20;;;;;;4965380;28;20030;-75
2023/03/15 12:29:17;;;;;;;2.35;0.40;;;9.30;78.50;;;;;;4965780;28;20073;-75
2023/03/15 12:31:52;;;;;;;2.33;0.60;;;9.60;78.10;;;;;;4976148;28;20030;-73
2023/03/15 12:34:35;;;;;;;4.97;0.50;;;10.00;77.60;;;;;;4970840;28;20068;-74
2023/03/15 12:37:21;;;;;;;3.50;0.52;;;10.00;77.20;;;;;;4964994;28;20030;-73
2023/03/15 12:39:59;;;;;;;4.22;0.68;;;10.00;77.70;;;;;;4977427;28;20245;-74
2023/03/15 12:42:28;;;;;;;2.58;0.40;;;9.90;77.60;;;;;;4966784;28;20035;-76
2023/03/15 12:44:54;;;;;;;4.43;0.50;;;10.00;78.10;;;;;;4946193;29;20042;-75
2023/03/15 12:47:19;;;;;;;1.70;0.40;;;10.00;78.00;;;;;;4963552;28;20237;-75
2023/03/15 12:49:45;;;;;;;3.53;0.80;;;9.90;78.50;;;;;;4945727;29;20213;-75
2023/03/15 12:52:24;;;;;;;4.75;0.77;;;9.70;79.60;;;;;;4963477;28;20020;-75
2023/03/15 12:54:55;;;;;;;4.28;0.70;;;9.70;79.70;;;;;;4963243;28;20027;-75
2023/03/15 12:57:29;;;;;;;1.98;0.70;;;9.60;79.80;;;;;;4964927;28;20035;-75
2023/03/15 12:59:57;;;;;;;3.83;1.10;;;9.40;79.80;;;;;;4982492;28;20391;-74
2023/03/15 13:02:33;;;;;;;4.03;0.85;;;9.20;86.10;;;;;;4982210;28;20054;-75
2023/03/15 13:05:22;;;;;;;6.22;1.08;;;9.00;88.80;;;;;;4978970;28;20029;-75
2023/03/15 13:08:08;;;;;;;3.90;0.80;;;8.90;90.40;;;;;;4980494;28;20400;-75
2023/03/15 13:10:52;;;;;;;3.83;1.20;;;8.80;91.50;;;;;;4981728;28;20288;-76
2023/03/15 13:13:17;;;;;;;3.08;1.08;;;8.70;92.10;;;;;;4974574;28;20062;-75
2023/03/15 13:16:02;;;;;;;4.07;0.95;;;8.50;92.50;;;;;;4962653;28;20032;-76
2023/03/15 13:18:33;;;;;;;4.30;1.00;;;8.40;93.10;;;;;;4962989;28;20027;-75
2023/03/15 13:21:18;;;;;;;3.08;0.80;;;8.50;92.70;;;;;;4963005;28;20033;-74
2023/03/15 13:23:50;;;;;;;5.97;0.95;;;8.90;92.90;;;;;;4962802;28;20031;-73
2023/03/15 13:26:44;;;;;;;4.18;1.08;;;10.40;91.10;;;;;;4962865;28;20035;-74
2023/03/15 13:29:22;;;;;;;2.63;0.70;;;10.90;89.90;;;;;;4963267;28;20031;-75
2023/03/15 13:32:13;;;;;;;3.40;0.95;;;11.70;88.20;;;;;;4969435;28;20034;-75
2023/03/15 13:34:39;;;;;;;4.05;0.80;;;11.60;87.20;;;;;;4981495;28;20039;-72
2023/03/15 13:37:20;;;;;;;2.58;0.75;;;11.30;87.40;;;;;;4982163;28;20023;-74
2023/03/15 13:39:59;;;;;;;2.83;0.70;;;10.90;88.00;;;;;;4967973;28;20035;-75
2023/03/15 13:42:26;;;;;;;3.30;0.93;;;10.30;89.40;;;;;;4963351;28;20034;-75
2023/03/15 13:45:22;;;;;;;3.03;1.08;;;10.30;89.80;;;;;;4965660;28;20286;-74
2023/03/15 13:47:48;;;;;;;3.53;0.90;;;9.80;90.30;;;;;;4953706;28;20042;-74
2023/03/15 13:50:19;;;;;;;5.25;1.20;;;9.40;91.30;;;;;;4966567;28;20051;-73
2023/03/15 13:52:46;;;;;;;4.03;1.00;;;8.90;92.50;;;;;;4938776;28;20034;-74
2023/03/15 13:55:19;;;;;;;3.13;0.68;;;8.70;92.90;;;;;;4972895;28;20193;-73
2023/03/15 13:57:46;;;;;;;2.45;1.00;;;8.50;92.70;;;;;;4977645;28;20027;-72
2023/03/15 14:00:17;;;;;;;3.35;1.13;;;8.00;93.50;;;;;;4969241;28;20015;-75
2023/03/15 14:02:47;;;;;;;2.67;0.85;;;8.00;93.40;;;;;;4958715;28;20269;-74
2023/03/15 14:05:28;;;;;;;4.85;0.88;;;8.10;93.90;;;;;;4977420;28;20078;-75
2023/03/15 14:08:01;;;;;;;5.18;0.98;;;8.00;94.60;;;;;;4965564;28;20244;-74
2023/03/15 14:10:37;;;;;;;2.75;0.80;;;7.90;95.50;;;;;;4967367;28;20039;-72
2023/03/15 14:13:35;;;;;;;2.95;1.17;;;7.90;96.10;;;;;;4985200;28;20034;-73
2023/03/15 14:16:07;;;;;;;5.80;1.20;;;7.80;96.00;;;;;;4974518;28;20030;-74
2023/03/15 14:18:35;;;;;;;3.88;0.80;;;7.90;96.30;;;;;;4984576;28;20086;-76
2023/03/15 14:21:14;;;;;;;;;;;8.10;97.20;;;;;;4985563;28;20311;-73
2023/03/15 14:23:43;;;;;;;2.65;0.85;;;8.50;97.20;;;;;;4984048;28;19906;-73
2023/03/15 14:26:26;;;;;;;1.95;0.60;;;10.90;94.90;;;;;;4984497;28;20261;-73
2023/03/15 14:29:10;;;;;;;2.58;0.55;;;14.10;89.20;;;;;;4984215;28;20031;-74
2023/03/15 14:31:40;;;;;;;3.42;0.65;;;16.10;80.30;;;;;;4984533;28;20097;-75
2023/03/15 14:34:16;;;;;;;3.15;0.68;;;17.00;76.90;;;;;;4967637;28;20265;-75
2023/03/15 14:36:44;;;;;;;3.22;1.15;;;17.90;73.50;;;;;;4967066;28;20089;-74
2023/03/15 14:39:26;;;;;;;3.28;0.80;;;16.70;73.80;;;;;;4981869;28;20026;-74
2023/03/15 14:41:52;;;;;;;2.55;0.70;;;14.80;78.30;;;;;;4984051;28;20092;-74
2023/03/15 14:44:18;;;;;;;1.63;0.70;;;13.50;81.20;;;;;;4984468;28;20106;-72
2023/03/15 14:46:43;;;;;;;3.30;1.02;;;12.40;83.60;;;;;;4966670;28;20047;-73
2023/03/15 14:49:16;;;;;;;3.33;1.00;;;11.90;85.60;;;;;;4967423;28;20273;-75
2023/03/15 14:51:42;;;;;;;4.00;0.80;;;11.00;87.60;;;;;;4983797;28;20030;-74
2023/03/15 14:54:10;;;;;;;3.97;1.10;;;10.40;89.40;;;;;;4983921;28;20039;-74
2023/03/15 14:56:36;;;;;;;3.75;1.00;;;9.60;90.90;;;;;;4983922;28;20069;-74
2023/03/15 14:59:08;;;;;;;3.33;1.00;;;9.20;92.70;;;;;;4976935;28;20035;-74
2023/03/15 15:01:34;;;;;;;2.92;1.20;;;8.60;95.00;;;;;;4964352;28;20217;-74
2023/03/15 15:04:01;;;;;;;4.05;1.00;;;8.10;96.60;;;;;;4955441;28;20212;-75
2023/03/15 15:06:30;;;;;;;2.87;0.60;;;7.70;98.50;;;;;;4982957;28;20062;-72
2023/03/15 15:08:59;;;;;;;2.38;0.80;;;7.20;99.90;;;;;;4977432;28;20447;-74
2023/03/15 15:11:25;;;;;;;;;;;6.90;99.90;;;;;;4965188;28;20039;-74
2023/03/15 15:13:51;;;;;;;2.55;1.00;;;6.50;99.90;;;;;;4964412;28;20189;-74
2023/03/15 15:16:17;;;;;;;2.20;0.73;;;6.20;99.90;;;;;;4965070;28;20023;-75
2023/03/15 15:18:42;;;;;;;2.90;0.80;;;5.90;99.90;;;;;;4964769;28;20340;-75
2023/03/15 15:21:28;;;;;;;3.30;1.45;;;5.70;99.90;;;;;;4965020;28;20309;-73
2023/03/15 15:23:54;;;;;;;3.47;0.88;;;5.40;99.90;;;;;;4964174;28;20448;-75
2023/03/15 15:26:22;;;;;;;3.55;0.80;;;5.10;99.90;;;;;;4964681;28;20062;-74
2023/03/15 15:28:48;;;;;;;5.38;1.20;;;4.90;99.90;;;;;;4964347;28;20050;-75
2023/03/15 15:31:24;;;;;;;3.30;1.45;;;4.70;99.90;;;;;;4964328;28;20194;-76
2023/03/15 15:33:50;;;;;;;2.67;1.20;;;4.50;99.90;;;;;;4978921;28;20047;-77
2023/03/15 15:36:40;;;;;;;3.30;1.20;;;4.30;99.90;;;;;;4966818;28;20027;-75
2023/03/15 15:39:24;;;;;;;2.60;1.20;;;4.00;99.90;;;;;;4980697;28;20116;-75
2023/03/15 15:41:50;;;;;;;2.58;1.20;;;3.70;99.90;;;;;;4983251;28;20047;-75
2023/03/15 15:44:18;;;;;;;3.60;1.30;;;3.60;99.90;;;;;;4966418;28;20034;-77
2023/03/15 15:46:44;;;;;;;2.88;1.23;;;3.50;99.90;;;;;;4983189;28;20088;-74
2023/03/15 15:49:10;;;;;;;3.47;1.77;;;3.50;99.90;;;;;;4983549;28;20098;-75
2023/03/15 15:51:41;;;;;;;2.80;1.92;;;3.50;99.90;;;;;;4967646;28;20094;-76
2023/03/15 15:54:14;;;;;;;4.35;1.38;;;3.60;99.90;;;;;;4966251;28;20065;-74
2023/03/15 15:56:46;;;;;;;2.90;1.30;;;3.70;99.90;;;;;;4965740;28;20209;-75
2023/03/15 15:59:14;;;;;;;3.72;1.52;;;3.80;99.90;;;;;;4975081;28;20352;-75
2023/03/15 16:01:40;;;;;;;3.38;1.23;;;3.80;99.90;;;;;;4962846;28;20042;-75
2023/03/15 16:04:07;;;;;;;2.60;1.00;;;3.90;99.90;;;;;;4963971;28;20031;-73
2023/03/15 16:06:36;;;;;;;2.20;1.20;;;4.00;99.90;;;;;;4963063;28;20094;-73
2023/03/15 16:09:07;;;;;;;3.10;1.60;;;4.10;99.90;;;;;;4963879;28;20166;-74
2023/03/15 16:11:34;;;;;;;3.72;1.60;;;4.30;99.90;;;;;;4963899;28;20035;-74
2023/03/15 16:13:59;;;;;;;4.03;1.50;;;4.60;99.90;;;;;;4963833;28;20053;-73
2023/03/15 16:16:28;;;;;;;2.97;1.50;;;4.70;99.90;;;;;;4963737;28;20023;-75
2023/03/15 16:18:56;;;;;;;2.67;1.42;;;4.70;99.90;;;;;;4963119;28;20050;-75
2023/03/15 16:21:28;;;;;;;;;;;4.70;99.90;;;;;;4976697;28;20030;-72
2023/03/15 16:24:15;;;;;;;3.63;1.80;;;4.60;99.90;;;;;;4963402;28;19913;-75
2023/03/15 16:26:41;;;;;;;3.60;1.38;;;4.70;99.90;;;;;;4963256;28;20061;-75
2023/03/15 16:29:22;;;;;;;2.72;1.13;;;4.70;99.90;;;;;;4963414;28;20042;-73
2023/03/15 16:31:49;;;;;;;2.42;1.20;;;4.80;99.90;;;;;;4959130;28;20046;-72
2023/03/15 16:34:16;;;;;;;2.88;1.17;;;4.80;99.90;;;;;;4982122;28;20277;-72
2023/03/15 16:36:45;;;;;;;4.22;1.13;;;4.80;99.90;;;;;;4982378;28;20118;-73
2023/03/15 16:39:15;;;;;;;2.70;1.13;;;4.70;99.90;;;;;;4980108;28;20041;-74
2023/03/15 16:41:41;;;;;;;2.90;1.45;;;4.80;99.90;;;;;;4982522;28;20034;-76
2023/03/15 16:44:11;;;;;;;2.70;1.30;;;4.80;99.90;;;;;;4965809;28;20206;-74
2023/03/15 16:46:36;;;;;;;2.63;1.15;;;4.80;99.90;;;;;;4982643;28;20075;-75
2023/03/15 16:49:02;;;;;;;3.55;1.30;;;4.80;99.90;;;;;;4982658;28;20103;-73
2023/03/15 16:51:28;;;;;;;5.55;1.65;;;4.80;99.90;;;;;;4982875;28;20058;-76
2023/03/15 16:53:54;;;;;;;2.88;1.20;;;4.80;99.90;;;;;;4982335;28;20300;-75
2023/03/15 16:56:20;;;;;;;3.00;1.48;;;4.80;99.90;;;;;;4982614;28;20057;-75
2023/03/15 16:58:50;;;;;;;3.03;1.35;;;4.80;99.90;;;;;;4977443;28;20135;-77
2023/03/15 17:01:16;;;;;;;3.53;1.27;;;4.90;99.90;;;;;;4963672;28;20217;-75
2023/03/15 17:03:45;;;;;;;3.50;0.90;;;4.90;99.90;;;;;;4962784;28;20047;-75
2023/03/15 17:06:21;;;;;;;3.05;1.40;;;4.90;99.90;;;;;;4963407;28;20042;-75
2023/03/15 17:08:49;;;;;;;4.00;1.20;;;4.80;99.90;;;;;;4964639;28;20027;-74
2023/03/15 17:11:16;;;;;;;3.45;1.17;;;4.80;99.90;;;;;;4975956;28;20019;-76
2023/03/15 17:13:42;;;;;;;3.70;1.58;;;4.80;99.90;;;;;;4981990;28;20034;-74
2023/03/15 17:16:13;;;;;;;4.32;1.45;;;4.80;99.90;;;;;;4982967;28;20035;-77
2023/03/15 17:18:41;;;;;;;4.05;1.63;;;4.70;99.90;;;;;;4983966;28;20030;-75
2023/03/15 17:21:18;;;;;;;3.83;1.52;;;4.70;99.90;;;;;;4974216;28;20030;-74
2023/03/15 17:23:45;;;;;;;3.35;1.70;;;4.70;99.90;;;;;;4963006;28;20241;-74
2023/03/15 17:26:16;;;;;;;4.32;1.92;;;4.60;99.90;;;;;;4948070;29;20083;-72
2023/03/15 17:28:43;;;;;;;3.47;1.77;;;4.50;99.90;;;;;;4958829;29;20039;-73
2023/03/15 17:31:13;;;;;;;4.03;2.03;;;4.50;99.90;;;;;;4947336;29;20019;-72
2023/03/15 17:33:39;;;;;;;5.10;1.90;;;4.40;99.90;;;;;;4960000;29;20262;-74
2023/03/15 17:36:06;;;;;;;4.07;2.08;;;4.20;99.90;;;;;;4961317;29;20042;-74
2023/03/15 17:38:32;;;;;;;3.72;2.10;;;4.20;99.90;;;;;;4951149;29;20042;-74
2023/03/15 17:40:58;;;;;;;5.00;1.98;;;4.10;99.90;;;;;;4946965;29;20043;-75
2023/03/15 17:43:23;;;;;;;4.50;2.25;;;4.00;99.90;;;;;;4947208;29;20043;-74
2023/03/15 17:45:51;;;;;;;5.18;2.30;;;4.00;99.90;;;;;;4947206;29;20087;-75
2023/03/15 17:48:16;;;;;;;4.40;2.00;;;3.90;99.90;;;;;;4947344;29;20050;-74
2023/03/15 17:50:44;;;;;;;4.85;2.30;;;3.90;99.90;;;;;;4965132;29;20023;-75
2023/03/15 17:53:19;;;;;;;4.10;2.20;;;3.80;99.90;;;;;;4953510;29;20035;-75
2023/03/15 17:55:46;;;;;;;6.07;2.40;;;3.70;99.90;;;;;;4937052;29;20209;-73
2023/03/15 17:58:23;;;;;;;4.38;2.30;;;3.60;99.90;;;;;;4952687;29;20051;-74
2023/03/15 18:00:50;;;;;;;6.03;2.80;;;3.50;99.90;;;;;;4946495;29;20036;-76
2023/03/15 18:03:16;;;;;;;4.95;2.72;;;3.40;99.90;;;;;;4946679;29;20276;-74
2023/03/15 18:05:42;;;;;;;5.45;3.13;;;3.40;99.90;;;;;;4946382;29;20032;-75
2023/03/15 18:08:19;;;;;;;5.18;3.10;;;3.30;99.90;;;;;;4940097;29;20070;-76
2023/03/15 18:10:45;;;;;;;7.32;3.50;;;3.20;99.90;;;;;;4942540;29;20094;-76
2023/03/15 18:13:17;;;;;;;5.93;3.80;;;3.20;99.90;;;;;;4946811;29;20035;-75
2023/03/15 18:15:44;;;;;;;6.85;3.90;;;3.10;99.90;;;;;;4946567;29;20082;-76
2023/03/15 18:18:13;;;;;;;6.28;4.20;;;3.20;99.90;;;;;;4955197;29;20036;-77
2023/03/15 18:20:39;;;;;;;9.27;5.68;;;3.10;99.90;;;;;;4929535;29;20032;-74
2023/03/15 18:23:05;;;;;;;12.38;6.53;;;3.10;99.90;;;;;;4945982;29;20040;-75
2023/03/15 18:25:43;;;;;;;8.35;5.43;;;3.10;99.90;;;;;;4946372;29;20069;-83
2023/03/15 18:28:10;;;;;;;7.22;5.03;;;3.10;99.90;;;;;;4929077;29;20083;-74
2023/03/15 18:30:36;;;;;;;7.53;5.60;;;3.00;99.90;;;;;;4946236;29;20062;-76
2023/03/15 18:33:04;;;;;;;9.18;5.30;;;3.00;99.90;;;;;;4954395;29;20102;-76
2023/03/15 18:35:34;;;;;;;11.27;7.35;;;2.90;99.90;;;;;;4965953;29;20361;-78
2023/03/15 18:38:00;;;;;;;10.23;6.43;;;3.00;99.90;;;;;;4963650;29;20049;-76
2023/03/15 18:40:28;;;;;;;9.35;6.18;;;2.90;99.90;;;;;;4946390;29;20341;-75
2023/03/15 18:42:55;;;;;;;14.27;7.90;;;2.90;99.90;;;;;;4946223;29;20043;-74
2023/03/15 18:45:28;;;;;;;12.10;7.22;;;2.80;99.90;;;;;;4946190;29;20107;-76
2023/03/15 18:47:54;;;;;;;10.13;6.03;;;2.80;99.90;;;;;;4945802;29;20418;-75